Time;durP1;ratioP1;P1;durP2;ratioP2;P2;SDS_P1;SDS_P2;PMS_P1;PMS_P2;Temp;Humidity;BMP_temperature;BMP_pressure;BME280_temperature;BME280_humidity;BME280_pressure;Samples;Min_cycle;Max_cycle;Signal;HPM_P1;HPM_P2
2023/11/30 08:36:54;;;;;;;20.60;10.80;;;;;;;-2.53;92.90;100177.92;112184;1247;25444;-45
2023/11/30 08:39:45;;;;;;;23.40;11.30;;;;;;;-2.41;91.54;100174.15;112055;1247;22619;-44
2023/11/30 08:42:30;;;;;;;25.30;11.60;;;;;;;-2.34;91.67;100176.34;112101;1249;22419;-44
2023/11/30 08:44:57;;;;;;;24.90;12.30;;;;;;;-2.27;91.54;100178.39;112732;1249;22603;-43
2023/11/30 08:47:25;;;;;;;22.90;11.90;;;;;;;-2.18;90.97;100184.84;112772;1246;22543;-45
2023/11/30 08:49:53;;;;;;;21.20;11.70;;;;;;;-2.11;90.64;100182.27;112855;1249;22977;-44
2023/11/30 08:52:26;;;;;;;20.80;10.90;;;;;;;-2.03;90.43;100184.88;111982;1237;22378;-49
2023/11/30 08:54:53;;;;;;;19.80;12.20;;;;;;;-2.01;89.88;100180.34;112053;1249;22971;-43
2023/11/30 08:57:20;;;;;;;21.20;11.60;;;;;;;-1.99;90.00;100183.21;112123;1249;23391;-44
2023/11/30 08:59:49;;;;;;;18.30;10.90;;;;;;;-1.91;89.83;100182.89;112256;1249;22399;-50
2023/11/30 09:02:16;;;;;;;19.90;10.70;;;;;;;-1.83;89.57;100179.70;112316;1246;24000;-50
2023/11/30 09:04:43;;;;;;;21.00;11.50;;;;;;;-1.73;89.75;100179.32;111944;1247;22543;-50
2023/11/30 09:07:11;;;;;;;23.40;12.00;;;;;;;-1.63;88.92;100182.84;112363;1249;22414;-50
2023/11/30 09:10:08;;;;;;;19.50;11.00;;;;;;;-1.60;88.11;100177.88;112639;1238;22399;-44
2023/11/30 09:12:47;;;;;;;18.70;10.50;;;;;;;-1.51;88.34;100175.20;112692;1249;23038;-50
2023/11/30 09:15:45;;;;;;;20.10;10.90;;;;;;;-1.41;87.81;100166.61;111349;1247;22555;-50
2023/11/30 09:18:27;;;;;;;24.70;12.20;;;;;;;-1.31;86.56;100169.60;111830;1249;25210;-49
2023/11/30 09:20:54;;;;;;;22.60;10.90;;;;;;;-1.25;86.62;100174.15;112426;1249;23105;-50
2023/11/30 09:23:20;;;;;;;19.60;11.20;;;;;;;-1.18;86.45;100173.79;112739;1237;22247;-50
2023/11/30 09:25:47;;;;;;;21.20;12.30;;;;;;;-1.10;86.13;100173.48;112664;1241;22757;-50
2023/11/30 09:28:15;;;;;;;22.80;11.50;;;;;;;-1.05;84.70;100169.20;112301;1249;22418;-50
2023/11/30 09:30:44;;;;;;;19.90;10.80;;;;;;;-1.06;84.67;100168.19;112440;1248;23267;-49
2023/11/30 09:33:11;;;;;;;19.20;10.80;;;;;;;-0.97;84.69;100168.21;112004;1245;22856;-44
2023/11/30 09:35:40;;;;;;;15.70;9.30;;;;;;;-0.88;83.92;100161.44;112693;1248;23265;-44
2023/11/30 09:38:07;;;;;;;19.10;9.20;;;;;;;-0.82;83.56;100157.05;112689;1247;22396;-51
2023/11/30 09:40:34;;;;;;;16.40;9.40;;;;;;;-0.76;83.26;100155.45;112515;1243;22613;-54
2023/11/30 09:43:01;;;;;;;19.80;10.80;;;;;;;-0.68;82.96;100160.23;112881;1249;22415;-49
2023/11/30 09:45:28;;;;;;;19.10;10.20;;;;;;;-0.63;82.92;100161.82;112829;1249;23046;-50
2023/11/30 09:48:00;;;;;;;24.70;11.80;;;;;;;-0.53;83.19;100158.11;112455;1249;22495;-49
2023/11/30 09:50:30;;;;;;;20.30;9.70;;;;;;;-0.35;82.98;100152.73;112057;1249;24313;-50
2023/11/30 09:53:00;;;;;;;19.80;10.70;;;;;;;-0.11;82.76;100144.40;112351;1248;23330;-52
2023/11/30 09:55:28;;;;;;;22.50;10.50;;;;;;;0.22;82.41;100146.59;112112;1241;23198;-44
2023/11/30 09:57:58;;;;;;;18.30;10.50;;;;;;;0.66;81.26;100150.50;111923;1248;22505;-45
2023/11/30 10:00:24;;;;;;;17.50;9.30;;;;;;;1.17;80.25;100142.71;112489;1249;22433;-50
2023/11/30 10:02:59;;;;;;;17.30;9.20;;;;;;;1.76;78.33;100146.11;112640;1249;22383;-45
2023/11/30 10:06:47;;;;;;;20.40;11.20;;;;;;;2.48;75.34;100138.22;112669;1249;22789;-43
2023/11/30 10:14:57;;;;;;;22.70;9.90;;;;;;;4.11;70.35;100126.70;112759;1249;22399;-49
2023/11/30 10:18:38;;;;;;;22.80;11.10;;;;;;;4.66;66.01;100130.87;112438;1245;22513;-49
2023/11/30 10:26:09;;;;;;;19.00;10.70;;;;;;;5.57;63.14;100140.40;112474;1237;22385;-50
2023/11/30 10:28:50;;;;;;;20.00;11.90;;;;;;;5.90;61.08;100146.71;112698;1249;22386;-50
2023/11/30 10:31:19;;;;;;;14.90;9.70;;;;;;;6.13;60.02;100146.40;112804;1249;22379;-47
2023/11/30 10:33:46;;;;;;;16.10;10.70;;;;;;;6.39;59.35;100147.30;112575;1249;22402;-46
2023/11/30 10:36:13;;;;;;;17.70;9.40;;;;;;;6.65;56.90;100147.67;112817;1248;22398;-46
2023/11/30 10:38:40;;;;;;;18.70;10.20;;;;;;;6.89;55.15;100148.33;112742;1249;22241;-47
2023/11/30 10:41:12;;;;;;;37.10;12.00;;;;;;;7.14;54.57;100154.02;112874;1244;22937;-45
2023/11/30 10:43:42;;;;;;;20.50;10.50;;;;;;;7.32;54.52;100161.67;112512;1249;23354;-51
2023/11/30 10:46:09;;;;;;;16.50;9.60;;;;;;;7.56;53.11;100164.35;112843;1235;22396;-49
2023/11/30 10:48:38;;;;;;;15.90;9.10;;;;;;;7.65;51.94;100158.90;112386;1247;22720;-45
2023/11/30 10:51:07;;;;;;;15.30;9.30;;;;;;;7.64;50.69;100158.88;111714;1244;24255;-45
2023/11/30 10:53:40;;;;;;;14.30;9.40;;;;;;;7.54;49.09;100169.89;111759;1243;23198;-44
2023/11/30 10:56:12;;;;;;;16.70;10.10;;;;;;;7.24;49.06;100172.34;112443;1240;22500;-44
2023/11/30 10:58:42;;;;;;;13.50;9.10;;;;;;;7.04;48.95;100170.55;111495;1249;23169;-49
2023/11/30 11:01:10;;;;;;;13.80;8.90;;;;;;;6.91;49.25;100171.43;111903;1237;22480;-49
2023/11/30 11:03:47;;;;;;;14.50;8.90;;;;;;;6.92;47.97;100168.31;111892;1241;22214;-49
2023/11/30 11:06:15;;;;;;;10.50;6.90;;;;;;;6.85;48.39;100162.70;111906;1243;22545;-49
2023/11/30 11:09:07;;;;;;;11.80;7.90;;;;;;;6.90;48.09;100158.58;112109;1244;22408;-49
2023/11/30 11:12:03;;;;;;;11.80;6.50;;;;;;;7.02;48.43;100156.30;111188;1249;22255;-49
2023/11/30 11:14:48;;;;;;;11.70;6.30;;;;;;;6.94;45.06;100153.77;112343;1249;23800;-44
2023/11/30 11:17:56;;;;;;;10.60;6.90;;;;;;;6.85;45.38;100153.15;112612;1249;22374;-44
2023/11/30 11:21:52;;;;;;;11.80;7.20;;;;;;;7.23;45.71;100155.33;112740;1249;22369;-44
2023/11/30 11:28:25;;;;;;;13.00;7.90;;;;;;;7.49;45.70;100153.37;111837;1249;22853;-45
2023/11/30 11:40:36;;;;;;;12.30;7.50;;;;;;;7.59;47.00;100135.57;112635;1249;22764;-45
2023/11/30 11:44:26;;;;;;;12.30;7.40;;;;;;;7.98;46.44;100129.30;112598;1249;23604;-49
2023/11/30 11:48:16;;;;;;;13.50;8.50;;;;;;;8.44;45.02;100120.98;112719;1249;23148;-49
2023/11/30 12:00:02;;;;;;;13.10;7.70;;;;;;;8.50;43.02;100118.58;112698;1249;22417;-49
2023/11/30 12:03:11;;;;;;;11.80;6.80;;;;;;;8.27;41.80;100125.02;112703;1235;23622;-46
2023/11/30 12:17:45;;;;;;;8.60;5.50;;;;;;;8.13;41.26;100106.85;112268;1249;22451;-50
2023/11/30 12:20:18;;;;;;;;;;;;;;;7.79;42.05;100104.86;112668;1249;22415;-50
2023/11/30 12:22:46;;;;;;;7.30;4.90;;;;;;;7.36;42.40;100102.38;112531;1235;22386;-49
2023/11/30 12:25:13;;;;;;;10.00;5.90;;;;;;;6.88;43.36;100105.15;112477;1241;22752;-49
2023/11/30 12:27:40;;;;;;;9.40;5.80;;;;;;;6.46;44.09;100108.42;112342;1244;22425;-45
2023/11/30 12:30:08;;;;;;;8.70;5.00;;;;;;;6.10;44.84;100113.80;112740;1248;22494;-45
2023/11/30 12:32:37;;;;;;;7.80;4.90;;;;;;;5.87;45.26;100119.30;112788;1248;23209;-45
2023/11/30 12:35:06;;;;;;;13.60;5.40;;;;;;;5.85;45.37;100127.73;112566;1249;22594;-44
2023/11/30 12:37:35;;;;;;;9.70;5.60;;;;;;;5.95;45.64;100129.33;111968;1248;23882;-46
2023/11/30 12:40:32;;;;;;;11.30;5.10;;;;;;;6.04;45.90;100124.44;112686;1248;22405;-49
2023/11/30 12:43:11;;;;;;;7.70;4.60;;;;;;;6.19;45.51;100126.56;112759;1249;22832;-50
2023/11/30 12:50:45;;;;;;;9.00;6.10;;;;;;;5.95;45.66;100127.58;112852;1249;22439;-45
2023/11/30 12:57:18;;;;;;;9.40;5.80;;;;;;;6.37;45.73;100132.39;112634;1249;23135;-44
2023/11/30 12:59:57;;;;;;;9.20;5.40;;;;;;;6.37;46.15;100132.39;112539;1249;22534;-50
2023/11/30 13:02:43;;;;;;;9.00;5.40;;;;;;;6.25;46.59;100130.30;111586;1248;26030;-52
2023/11/30 13:05:42;;;;;;;11.40;5.80;;;;;;;5.88;46.64;100132.30;112007;1249;22983;-50
2023/11/30 13:09:24;;;;;;;11.20;5.80;;;;;;;5.22;47.83;100135.79;112527;1249;23199;-45
2023/11/30 13:12:40;;;;;;;15.60;6.50;;;;;;;4.34;49.64;100149.33;112670;1249;22381;-50
2023/11/30 13:19:44;;;;;;;13.90;8.10;;;;;;;3.03;52.88;100161.34;112098;1249;22383;-49
2023/11/30 13:23:07;;;;;;;20.70;9.60;;;;;;;2.51;54.71;100165.70;112770;1249;23223;-48
2023/11/30 13:25:46;;;;;;;15.30;7.70;;;;;;;2.21;56.22;100171.64;112663;1249;22391;-48
2023/11/30 13:28:37;;;;;;;15.40;7.30;;;;;;;1.90;57.85;100173.25;112588;1245;22666;-45
2023/11/30 13:31:19;;;;;;;12.20;6.50;;;;;;;1.62;59.22;100175.23;112742;1248;22694;-44
2023/11/30 13:33:46;;;;;;;13.10;6.60;;;;;;;1.41;60.45;100175.34;112695;1246;22454;-49
2023/11/30 13:36:13;;;;;;;11.80;6.70;;;;;;;1.20;61.57;100172.91;112785;1244;22465;-45
2023/11/30 13:38:41;;;;;;;11.40;6.10;;;;;;;1.02;62.51;100171.23;111336;1249;22758;-50
2023/11/30 13:41:08;;;;;;;10.70;6.30;;;;;;;0.86;63.36;100175.60;112170;1248;23293;-49
2023/11/30 13:43:35;;;;;;;8.30;4.90;;;;;;;0.70;63.87;100175.55;112821;1245;22376;-50
2023/11/30 13:46:04;;;;;;;10.00;5.20;;;;;;;0.59;64.52;100180.79;112849;1238;22598;-48
2023/11/30 13:48:31;;;;;;;9.80;5.10;;;;;;;0.49;65.18;100187.61;112772;1243;22502;-43
2023/11/30 13:50:57;;;;;;;10.60;5.80;;;;;;;0.40;65.80;100182.11;112827;1238;22882;-48
2023/11/30 13:53:30;;;;;;;12.00;6.40;;;;;;;0.30;66.55;100180.52;112852;1249;22353;-44
2023/11/30 13:55:56;;;;;;;15.70;8.00;;;;;;;0.19;67.20;100179.95;112876;1249;23083;-45
2023/11/30 13:58:24;;;;;;;22.60;9.90;;;;;;;0.09;68.18;100186.39;112877;1244;22337;-49
2023/11/30 14:00:52;;;;;;;23.70;11.30;;;;;;;-0.01;69.05;100191.64;112958;1249;23069;-44
2023/11/30 14:03:18;;;;;;;21.60;12.10;;;;;;;-0.11;69.89;100200.15;112884;1248;22366;-45
2023/11/30 14:05:45;;;;;;;29.50;13.40;;;;;;;-0.21;70.37;100201.13;112976;1249;22929;-50
2023/11/30 14:08:13;;;;;;;27.20;13.60;;;;;;;-0.30;70.77;100194.23;113019;1249;22504;-48
2023/11/30 14:10:39;;;;;;;26.30;13.10;;;;;;;-0.36;70.64;100189.14;112651;1249;22202;-45
2023/11/30 14:13:07;;;;;;;22.40;12.40;;;;;;;-0.42;71.22;100181.04;112995;1249;22470;-50
2023/11/30 14:15:34;;;;;;;24.70;13.70;;;;;;;-0.45;71.60;100178.85;113020;1249;22387;-43
2023/11/30 14:18:01;;;;;;;31.00;15.70;;;;;;;-0.47;71.62;100184.23;113036;1244;22481;-48
2023/11/30 14:20:28;;;;;;;28.00;12.30;;;;;;;-0.49;71.67;100187.23;112572;1249;22303;-44
2023/11/30 14:22:55;;;;;;;21.50;12.40;;;;;;;-0.53;71.79;100189.81;111228;1237;25451;-49
2023/11/30 14:25:22;;;;;;;24.10;12.30;;;;;;;-0.58;71.46;100186.69;111573;1249;22414;-44
2023/11/30 14:27:48;;;;;;;32.80;14.00;;;;;;;-0.62;71.53;100192.52;112208;1236;22606;-49
2023/11/30 14:30:15;;;;;;;35.90;16.30;;;;;;;-0.66;71.69;100193.39;112832;1237;24443;-43
2023/11/30 14:32:42;;;;;;;40.10;18.20;;;;;;;-0.68;71.66;100195.00;112691;1242;23500;-48
2023/11/30 14:35:11;;;;;;;37.60;16.70;;;;;;;-0.70;72.11;100197.34;111971;1248;22558;-44
2023/11/30 14:37:38;;;;;;;37.80;16.70;;;;;;;-0.69;72.20;100198.91;112136;1248;23081;-48
2023/11/30 14:40:08;;;;;;;33.40;14.90;;;;;;;-0.69;72.58;100200.47;112194;1249;23293;-45
2023/11/30 14:42:35;;;;;;;29.30;14.00;;;;;;;-0.68;72.91;100200.15;112484;1249;22626;-49
2023/11/30 14:45:04;;;;;;;31.10;14.90;;;;;;;-0.69;73.29;100197.71;111004;1248;26489;-49
2023/11/30 15:04:32;;;;;;;32.20;14.20;;;;;;;-0.85;74.73;100192.41;113078;1240;22213;-49
2023/11/30 15:07:00;;;;;;;34.80;16.50;;;;;;;-0.87;74.72;100191.29;111234;1249;23266;-44
2023/11/30 15:09:26;;;;;;;31.20;18.00;;;;;;;-0.90;74.78;100196.25;110175;1249;25383;-43
2023/11/30 15:11:54;;;;;;;32.70;17.30;;;;;;;-0.94;75.02;100192.82;110794;1238;22864;-48
2023/11/30 15:14:20;;;;;;;35.40;15.80;;;;;;;-0.97;75.41;100192.89;110341;1248;22551;-44
2023/11/30 15:17:06;;;;;;;34.20;15.20;;;;;;;-0.97;75.82;100189.98;110419;1248;25517;-50
2023/11/30 15:19:33;;;;;;;32.40;14.80;;;;;;;-0.96;75.91;100187.59;110258;1249;22530;-49
2023/11/30 15:22:00;;;;;;;38.20;16.10;;;;;;;-0.99;76.13;100183.55;110856;1235;24280;-44
